Time;durP1;ratioP1;P1;durP2;ratioP2;P2;SDS_P1;SDS_P2;PMS_P1;PMS_P2;Temp;Humidity;BMP_temperature;BMP_pressure;BME280_temperature;BME280_humidity;BME280_pressure;Samples;Min_cycle;Max_cycle;Signal;HPM_P1;HPM_P2
2022/12/09 05:32:34;;;;;;;;;27.25;27.00;;;;;6.53;63.04;100181.00;5045208;27;45535;-77
2022/12/09 05:34:59;;;;;;;;;34.75;28.75;;;;;6.50;63.16;100181.97;5057483;28;45244;-78
2022/12/09 05:37:25;;;;;;;;;28.75;27.00;;;;;6.50;62.85;100179.31;5036671;28;48300;-76
2022/12/09 05:39:50;;;;;;;;;28.25;26.00;;;;;6.45;63.02;100181.28;5037254;28;45422;-76
2022/12/09 05:42:16;;;;;;;;;30.75;29.00;;;;;6.41;63.43;100169.00;5054969;28;45374;-76
2022/12/09 05:44:41;;;;;;;;;31.50;26.50;;;;;6.19;63.31;100122.84;5019923;28;45544;-77
2022/12/09 05:47:06;;;;;;;;;33.75;28.50;;;;;6.52;63.07;100176.59;5036811;28;48200;-76
2022/12/09 05:49:32;;;;;;;;;27.50;27.50;;;;;6.52;62.57;100181.91;5055139;28;45327;-77
2022/12/09 05:51:57;;;;;;;;;27.25;24.25;;;;;6.31;62.03;100155.19;5054990;28;45342;-76
2022/12/09 05:54:22;;;;;;;;;30.75;26.75;;;;;6.40;62.13;100170.81;5054618;28;45443;-77
2022/12/09 05:56:48;;;;;;;;;24.75;24.75;;;;;6.43;62.63;100175.16;5036594;28;47794;-77
2022/12/09 05:59:13;;;;;;;;;25.75;24.75;;;;;6.31;62.14;100159.63;5036582;28;45419;-76
2022/12/09 06:01:39;;;;;;;;;24.00;22.00;;;;;6.42;62.14;100179.59;5054501;28;45360;-76
2022/12/09 06:04:04;;;;;;;;;24.00;21.75;;;;;6.43;61.89;100184.00;5054857;28;45267;-77
2022/12/09 06:06:30;;;;;;;;;28.75;24.25;;;;;6.40;62.02;100184.13;5055007;28;45361;-73
2022/12/09 06:08:59;;;;;;;;;31.00;24.25;;;;;6.40;61.96;100191.22;5041219;28;45241;-75
2022/12/09 06:11:25;;;;;;;;;28.75;23.75;;;;;6.41;61.97;100195.63;5054958;28;45484;-73
2022/12/09 06:13:50;;;;;;;;;28.25;24.25;;;;;6.36;61.67;100195.81;5047505;28;45550;-76
2022/12/09 06:16:19;;;;;;;;;25.25;20.00;;;;;6.30;61.45;100197.81;5051903;28;46088;-74
2022/12/09 06:18:48;;;;;;;;;24.75;18.00;;;;;6.14;62.06;100186.88;5054684;28;45435;-77
2022/12/09 06:21:15;;;;;;;;;35.50;29.50;;;;;6.13;61.86;100201.09;5054905;28;45394;-76
2022/12/09 06:23:42;;;;;;;;;31.25;23.50;;;;;6.02;62.02;100190.88;5053153;28;45831;-76
2022/12/09 06:26:14;;;;;;;;;19.75;17.50;;;;;6.05;62.19;100205.84;5054804;28;45419;-74
2022/12/09 06:28:39;;;;;;;;;24.75;23.25;;;;;5.96;61.63;100203.50;5054606;28;45487;-75
2022/12/09 06:31:05;;;;;;;;;29.25;25.75;;;;;5.91;61.76;100202.81;5054582;28;45488;-72
2022/12/09 06:33:30;;;;;;;;;30.50;24.00;;;;;5.93;61.65;100216.94;5037847;28;45398;-74
2022/12/09 06:36:00;;;;;;;;;27.00;25.25;;;;;5.87;61.76;100217.13;5054577;28;45894;-75
2022/12/09 06:38:25;;;;;;;;;32.75;24.50;;;;;5.83;62.00;100215.47;5053934;28;45448;-75
2022/12/09 06:40:50;;;;;;;;;34.75;25.50;;;;;5.67;61.34;100197.41;5036279;28;45390;-75
2022/12/09 06:43:16;;;;;;;;;21.75;17.50;;;;;5.76;61.67;100213.97;5054343;28;45572;-72
2022/12/09 06:45:42;;;;;;;;;25.00;20.50;;;;;5.71;61.64;100216.75;5053791;28;46004;-73
2022/12/09 06:48:07;;;;;;;;;20.25;17.00;;;;;5.65;62.21;100209.88;5053809;28;45328;-74
2022/12/09 06:50:32;;;;;;;;;20.25;19.50;;;;;5.63;61.81;100209.03;5054196;28;45436;-76
2022/12/09 06:52:58;;;;;;;;;23.75;21.00;;;;;5.56;62.42;100207.53;5054538;28;45310;-74
2022/12/09 06:55:23;;;;;;;;;28.00;23.25;;;;;5.53;62.04;100201.47;5054052;28;47009;-74
2022/12/09 06:57:49;;;;;;;;;26.75;23.50;;;;;5.55;62.25;100208.44;5054249;28;45461;-75
2022/12/09 07:00:16;;;;;;;;;22.50;22.00;;;;;5.51;61.77;100201.50;5054135;28;45362;-77
2022/12/09 07:02:41;;;;;;;;;24.50;19.25;;;;;5.49;61.58;100200.69;5054929;28;46630;-76
2022/12/09 07:05:07;;;;;;;;;26.50;26.50;;;;;5.50;61.71;100205.09;5054117;28;45536;-75
2022/12/09 07:07:32;;;;;;;;;25.25;20.50;;;;;5.43;61.61;100203.56;5057005;28;45518;-76
2022/12/09 07:10:01;;;;;;;;;25.25;24.00;;;;;5.44;61.61;100215.06;5057261;28;45359;-73
2022/12/09 07:12:26;;;;;;;;;23.25;22.00;;;;;5.43;61.86;100205.34;5058051;28;45519;-76
2022/12/09 07:14:52;;;;;;;;;24.75;22.00;;;;;5.35;61.45;100196.75;5048034;28;45919;-75
2022/12/09 07:17:19;;;;;;;;;25.50;23.00;;;;;5.40;61.75;100206.31;5040248;28;45864;-76
2022/12/09 07:19:44;;;;;;;;;21.75;16.50;;;;;5.37;61.54;100210.84;5061722;28;45284;-76
2022/12/09 07:22:10;;;;;;;;;26.75;23.00;;;;;5.44;60.96;100234.53;5062179;28;45311;-75
2022/12/09 07:24:37;;;;;;;;;27.25;22.50;;;;;5.43;61.73;100229.28;5043154;28;46079;-75
2022/12/09 07:27:07;;;;;;;;;29.50;22.75;;;;;5.25;61.15;100193.53;5042169;28;45431;-76
2022/12/09 07:29:34;;;;;;;;;27.75;21.25;;;;;5.34;61.31;100230.44;5057809;28;45426;-77
2022/12/09 07:31:59;;;;;;;;;24.25;23.50;;;;;5.39;61.74;100244.44;5057362;28;45506;-75
2022/12/09 07:34:25;;;;;;;;;29.25;22.00;;;;;5.39;61.32;100244.44;5059053;28;46182;-74
2022/12/09 07:36:50;;;;;;;;;28.25;25.00;;;;;5.39;61.09;100236.47;5039100;28;45385;-75
2022/12/09 07:39:17;;;;;;;;;27.00;24.50;;;;;5.39;61.51;100240.91;5039918;28;45441;-75
2022/12/09 07:41:43;;;;;;;;;18.25;17.25;;;;;5.37;61.21;100238.28;5056850;28;45509;-74
2022/12/09 07:44:10;;;;;;;;;23.00;18.00;;;;;5.34;61.21;100233.09;5056798;28;45653;-76
2022/12/09 07:46:36;;;;;;;;;19.75;19.25;;;;;5.29;61.28;100229.69;5056794;28;45340;-75
2022/12/09 07:49:03;;;;;;;;;19.25;19.25;;;;;5.31;60.71;100233.19;5056970;28;45485;-75
2022/12/09 07:51:29;;;;;;;;;23.00;23.00;;;;;5.26;60.57;100236.00;5056751;28;45328;-74
2022/12/09 07:53:54;;;;;;;;;22.00;20.25;;;;;5.18;61.05;100235.38;5054324;28;46036;-74
2022/12/09 07:56:21;;;;;;;;;26.75;23.25;;;;;5.20;61.38;100243.28;5054696;28;45308;-75
2022/12/09 07:58:52;;;;;;;;;17.25;16.75;;;;;5.14;60.97;100252.31;5051830;28;45560;-75
2022/12/09 08:01:20;;;;;;;;;23.00;18.50;;;;;5.15;61.28;100253.19;5054145;28;45442;-77
2022/12/09 08:03:47;;;;;;;;;24.50;22.00;;;;;5.11;61.11;100244.44;5038055;28;47632;-75
2022/12/09 08:06:14;;;;;;;;;30.00;23.75;;;;;5.13;61.16;100257.69;5056342;28;45522;-77
2022/12/09 08:08:40;;;;;;;;;29.25;20.50;;;;;5.03;61.52;100238.50;5056736;28;45296;-75
2022/12/09 08:11:14;;;;;;;;;28.50;22.50;;;;;5.13;61.50;100255.03;5056872;28;45387;-76
2022/12/09 08:13:42;;;;;;;;;10.75;9.50;;;;;5.09;61.09;100246.31;5053325;28;46365;-74
2022/12/09 08:16:11;;;;;;;;;20.00;14.50;;;;;5.04;61.13;100223.44;5055422;28;45510;-73
2022/12/09 08:18:37;;;;;;;;;23.50;22.50;;;;;5.20;60.79;100245.94;5036801;28;45529;-74
2022/12/09 08:21:05;;;;;;;;;30.50;22.75;;;;;5.19;60.66;100238.91;5054704;28;45369;-72
2022/12/09 08:23:30;;;;;;;;;28.50;26.25;;;;;5.22;60.71;100244.09;5037334;28;46970;-74
2022/12/09 08:25:56;;;;;;;;;29.00;20.75;;;;;5.15;60.44;100242.56;5055997;28;45310;-73
2022/12/09 08:28:22;;;;;;;;;20.25;20.25;;;;;5.12;60.46;100229.38;5056165;28;46177;-74
2022/12/09 08:30:49;;;;;;;;;28.75;26.25;;;;;5.20;60.33;100246.81;5055153;28;45478;-72
2022/12/09 08:33:15;;;;;;;;;36.00;24.00;;;;;5.18;60.36;100239.81;5055884;28;45466;-73
2022/12/09 08:35:40;;;;;;;;;26.25;25.00;;;;;5.25;60.76;100252.00;5058112;28;45656;-74
2022/12/09 08:38:06;;;;;;;;;21.00;21.00;;;;;5.21;60.80;100259.19;5036967;28;45424;-77
2022/12/09 08:40:33;;;;;;;;;17.75;17.75;;;;;5.11;60.08;100231.16;5053954;28;45421;-74
2022/12/09 08:42:59;;;;;;;;;23.00;23.00;;;;;5.24;60.47;100239.63;5055999;28;46327;-76
2022/12/09 08:45:24;;;;;;;;;31.25;25.75;;;;;5.27;60.19;100261.63;5055079;28;45460;-71
2022/12/09 08:47:50;;;;;;;;;26.25;23.50;;;;;5.24;60.47;100247.59;5056552;28;45232;-76
2022/12/09 08:50:16;;;;;;;;;31.50;25.50;;;;;5.31;60.64;100250.00;5038060;28;46260;-74
2022/12/09 08:52:42;;;;;;;;;33.25;22.25;;;;;5.39;60.63;100259.50;5055584;28;46255;-74
2022/12/09 08:55:08;;;;;;;;;27.75;24.25;;;;;5.37;60.17;100258.69;5055462;28;45331;-73
2022/12/09 08:57:34;;;;;;;;;33.50;28.50;;;;;5.29;60.72;100250.97;5056224;28;45389;-75
2022/12/09 08:59:59;;;;;;;;;36.25;26.75;;;;;5.28;60.18;100249.22;5053674;28;45552;-75
2022/12/09 09:02:25;;;;;;;;;27.50;26.75;;;;;5.18;59.93;100234.50;5055867;28;45589;-73
2022/12/09 09:04:50;;;;;;;;;25.25;21.50;;;;;5.32;60.50;100265.03;5053596;28;45468;-75
2022/12/09 09:07:15;;;;;;;;;26.50;26.50;;;;;5.35;60.40;100264.06;5039728;28;45370;-72
2022/12/09 09:09:41;;;;;;;;;33.25;24.75;;;;;5.36;60.39;100263.13;5044475;28;46394;-73
2022/12/09 09:12:06;;;;;;;;;27.50;24.50;;;;;5.28;60.53;100252.75;5053929;28;45481;-74
2022/12/09 09:14:32;;;;;;;;;30.50;28.75;;;;;5.29;59.84;100240.34;5052777;28;45439;-73
2022/12/09 09:16:57;;;;;;;;;30.75;27.00;;;;;5.28;60.32;100259.84;5055780;28;45420;-73
2022/12/09 09:19:24;;;;;;;;;39.75;31.00;;;;;5.32;60.66;100256.19;5054404;28;45568;-77
2022/12/09 09:21:53;;;;;;;;;30.00;24.50;;;;;5.36;60.47;100255.16;5037420;28;47027;-72
2022/12/09 09:24:21;;;;;;;;;30.75;27.75;;;;;5.40;61.17;100256.81;5050746;28;45509;-72
2022/12/09 09:26:49;;;;;;;;;37.25;36.00;;;;;5.49;61.12;100267.16;5054962;28;45422;-73
2022/12/09 09:29:17;;;;;;;;;38.75;33.50;;;;;5.49;60.93;100268.94;5052825;28;45357;-73
2022/12/09 09:31:42;;;;;;;;;35.25;29.25;;;;;5.51;60.68;100267.09;5056373;28;46575;-71
2022/12/09 09:34:08;;;;;;;;;37.75;33.50;;;;;5.51;60.69;100267.97;5057926;28;45410;-72
2022/12/09 09:36:34;;;;;;;;;49.25;38.75;;;;;5.46;60.64;100248.63;5056044;28;45340;-72
2022/12/09 09:38:59;;;;;;;;;42.00;37.25;;;;;5.56;60.63;100267.81;5054635;28;45541;-71
2022/12/09 09:41:44;;;;;;;;;36.00;31.25;;;;;5.58;60.61;100268.63;5056327;28;46434;-71
2022/12/09 09:44:37;;;;;;;;;36.75;34.75;;;;;5.61;60.66;100263.22;5054565;28;45447;-73
2022/12/09 09:47:32;;;;;;;;;34.25;31.75;;;;;5.63;59.98;100267.56;5045464;28;45537;-73
2022/12/09 09:50:23;;;;;;;;;33.75;30.00;;;;;5.64;60.12;100271.94;5052089;28;45913;-72
2022/12/09 09:52:52;;;;;;;;;40.25;30.00;;;;;5.57;60.50;100270.41;5052075;28;46717;-72
2022/12/09 09:55:28;;;;;;;;;39.00;35.00;;;;;5.56;60.31;100267.81;5054600;28;45466;-73
2022/12/09 09:58:03;;;;;;;;;39.75;34.00;;;;;5.56;60.64;100265.16;5054362;28;45395;-73
2022/12/09 10:00:37;;;;;;;;;42.75;39.00;;;;;5.51;60.25;100264.44;5035955;28;46869;-72
2022/12/09 10:03:40;;;;;;;;;39.00;32.50;;;;;5.52;60.41;100261.75;5036807;28;47040;-72
2022/12/09 10:06:28;;;;;;;;;36.50;35.25;;;;;5.52;61.02;100264.41;4970849;28;45579;-71
2022/12/09 10:09:10;;;;;;;;;42.75;38.00;;;;;5.49;60.78;100250.31;5052919;28;45430;-72
2022/12/09 10:11:59;;;;;;;;;45.50;39.25;;;;;5.57;60.78;100259.78;5054530;28;45288;-71
2022/12/09 10:14:35;;;;;;;;;40.00;34.00;;;;;5.55;60.77;100253.63;5052655;28;46542;-71
2022/12/09 10:17:00;;;;;;;;;40.25;38.75;;;;;5.63;60.47;100254.25;5054600;28;45307;-72
2022/12/09 10:19:30;;;;;;;;;35.75;32.75;;;;;5.69;60.62;100239.91;5054386;28;45373;-71
2022/12/09 10:22:00;;;;;;;;;34.75;32.00;;;;;5.74;60.48;100237.94;5054478;28;45293;-72
2022/12/09 10:24:33;;;;;;;;;38.75;33.75;;;;;5.84;60.48;100246.47;5053649;28;45350;-72
2022/12/09 10:27:09;;;;;;;;;35.25;30.50;;;;;5.91;60.14;100242.72;5054304;28;45405;-73
2022/12/09 10:29:50;;;;;;;;;35.50;34.25;;;;;5.86;60.13;100228.69;5053905;28;45556;-74
2022/12/09 10:32:19;;;;;;;;;42.75;36.25;;;;;5.92;59.62;100242.66;5053844;28;45393;-74
2022/12/09 10:34:46;;;;;;;;;30.00;30.00;;;;;5.91;59.69;100224.97;5055483;28;46438;-73
2022/12/09 10:37:38;;;;;;;;;35.00;32.25;;;;;6.00;59.60;100234.41;5054005;28;45532;-73
2022/12/09 10:40:06;;;;;;;;;40.75;33.75;;;;;6.05;60.08;100233.31;5032188;28;45348;-72
2022/12/09 10:45:29;;;;;;;;;39.75;34.75;;;;;6.15;59.32;100217.88;5055705;28;45398;-73
2022/12/09 10:47:54;;;;;;;;;42.25;35.00;;;;;6.24;59.75;100222.88;5056834;28;45398;-73
2022/12/09 10:50:31;;;;;;;;;37.00;35.50;;;;;6.35;59.29;100220.69;5057540;28;45354;-72
2022/12/09 10:53:04;;;;;;;;;45.75;40.50;;;;;6.44;58.95;100223.03;5057565;28;45229;-73
2022/12/09 10:55:36;;;;;;;;;41.25;36.25;;;;;6.48;59.16;100218.44;5057812;28;45639;-72
2022/12/09 10:58:17;;;;;;;;;50.75;38.25;;;;;6.54;58.80;100220.03;5056842;28;45450;-72
2022/12/09 11:00:55;;;;;;;;;38.25;34.50;;;;;6.52;58.16;100203.22;5051224;28;45461;-71
2022/12/09 11:03:26;;;;;;;;;36.00;34.25;;;;;6.64;57.81;100222.25;5034582;28;45802;-78
2022/12/09 11:06:02;;;;;;;;;39.00;32.25;;;;;6.62;58.20;100207.28;5051884;28;45510;-72
2022/12/09 11:08:29;;;;;;;;;33.50;32.25;;;;;6.64;58.12;100222.25;5046524;28;45388;-72
2022/12/09 11:10:54;;;;;;;;;45.25;35.25;;;;;6.62;58.41;100196.63;5054699;28;45857;-75
2022/12/09 11:13:25;;;;;;;;;29.75;29.75;;;;;6.75;57.77;100213.84;5052857;28;45637;-75
2022/12/09 11:15:52;;;;;;;;;40.00;32.00;;;;;6.72;57.33;100196.19;5052984;28;45314;-72
2022/12/09 11:18:31;;;;;;;;;40.00;32.50;;;;;6.79;57.33;100215.50;5058875;28;45528;-75
2022/12/09 11:21:26;;;;;;;;;31.50;25.75;;;;;6.79;57.55;100207.50;5051139;28;45521;-71
2022/12/09 11:23:52;;;;;;;;;45.00;35.25;;;;;6.75;57.76;100203.19;5045250;28;45471;-77
2022/12/09 11:26:23;;;;;;;;;31.50;30.75;;;;;6.72;57.61;100180.22;5038524;28;46669;-78
2022/12/09 11:28:59;;;;;;;;;34.25;29.75;;;;;6.76;57.93;100196.94;5057118;28;45516;-78
2022/12/09 11:31:25;;;;;;;;;36.00;30.25;;;;;6.67;57.66;100173.34;5040031;28;45602;-78
2022/12/09 11:33:57;;;;;;;;;29.00;21.50;;;;;6.64;57.76;100173.44;5060554;28;46317;-77
2022/12/09 11:36:27;;;;;;;;;41.50;36.75;;;;;6.67;57.32;100195.50;5058823;28;45932;-75
2022/12/09 11:39:18;;;;;;;;;40.50;35.25;;;;;6.60;58.12;100169.19;5056816;28;45526;-75
2022/12/09 11:42:13;;;;;;;;;39.50;37.00;;;;;6.62;58.58;100186.84;5058227;28;45384;-78
2022/12/09 11:45:07;;;;;;;;;34.75;34.00;;;;;6.52;58.23;100164.16;5061445;28;45631;-73
2022/12/09 11:47:37;;;;;;;;;41.25;39.50;;;;;6.68;58.43;100191.06;5048582;28;46386;-75
2022/12/09 11:50:22;;;;;;;;;40.00;33.00;;;;;6.59;57.99;100176.28;5065187;28;45249;-76
2022/12/09 11:53:06;;;;;;;;;36.00;34.50;;;;;6.64;58.34;100190.28;5065228;28;45315;-73
2022/12/09 11:55:34;;;;;;;;;44.00;38.75;;;;;6.57;58.11;100182.59;5061665;28;45248;-73
2022/12/09 11:58:03;;;;;;;;;44.75;38.00;;;;;6.66;57.85;100179.59;5056198;28;45511;-72
2022/12/09 12:01:21;;;;;;;;;30.50;26.25;;;;;6.62;58.52;100186.84;5049765;28;45404;-73
2022/12/09 12:03:54;;;;;;;;;43.00;38.25;;;;;6.57;58.54;100177.28;5051953;28;45328;-74
2022/12/09 12:06:23;;;;;;;;;44.50;39.00;;;;;6.62;58.73;100167.31;5056370;28;45359;-72
2022/12/09 12:08:55;;;;;;;;;42.25;37.00;;;;;6.80;58.76;100182.59;5039123;28;48365;-74
2022/12/09 12:11:27;;;;;;;;;38.25;35.25;;;;;6.80;58.17;100169.28;5057978;28;45489;-75
2022/12/09 12:14:02;;;;;;;;;34.50;22.50;;;;;6.86;57.65;100174.34;5050454;28;45779;-73
2022/12/09 12:16:53;;;;;;;;;30.25;30.25;;;;;6.91;57.52;100182.16;5057822;28;45289;-75
2022/12/09 12:19:32;;;;;;;;;45.75;36.50;;;;;6.91;57.67;100188.34;5057604;28;45439;-73
2022/12/09 12:22:18;;;;;;;;;46.50;37.75;;;;;6.94;57.60;100187.38;5057458;28;45358;-74
2022/12/09 12:25:08;;;;;;;;;39.00;34.00;;;;;6.95;57.93;100181.13;5057416;28;45394;-74
2022/12/09 12:28:01;;;;;;;;;47.75;38.50;;;;;6.76;57.37;100186.28;5057946;28;45993;-74
2022/12/09 12:30:38;;;;;;;;;50.25;40.50;;;;;6.60;57.96;100156.72;5039468;28;46270;-75
2022/12/09 12:33:22;;;;;;;;;49.00;35.75;;;;;6.69;58.34;100179.47;5058370;28;45182;-73
2022/12/09 12:36:02;;;;;;;;;43.75;35.75;;;;;6.70;58.40;100175.88;5056917;28;45391;-74
2022/12/09 12:38:42;;;;;;;;;40.25;38.00;;;;;6.71;58.28;100172.31;5057627;28;45359;-73
2022/12/09 12:41:15;;;;;;;;;52.00;41.75;;;;;6.79;58.59;100183.53;5057540;28;46451;-74
2022/12/09 12:47:26;;;;;;;;;47.75;43.50;;;;;6.89;58.52;100163.56;5056290;28;45343;-72
2022/12/09 12:50:13;;;;;;;;;54.50;38.50;;;;;6.87;58.69;100180.56;5041857;28;45559;-74
2022/12/09 12:53:12;;;;;;;;;41.00;37.50;;;;;6.88;58.50;100172.50;5053396;28;45462;-75
2022/12/09 12:55:55;;;;;;;;;44.50;39.50;;;;;6.91;58.21;100172.34;5044790;28;45169;-77
2022/12/09 12:58:34;;;;;;;;;55.00;43.00;;;;;6.93;58.66;100180.28;5054927;28;45505;-77
2022/12/09 13:01:33;;;;;;;;;42.00;37.00;;;;;6.98;58.79;100168.50;5037575;28;46099;-73
2022/12/09 13:04:27;;;;;;;;;39.50;35.50;;;;;7.04;57.93;100184.28;5054701;28;46043;-75
2022/12/09 13:07:31;;;;;;;;;37.00;32.25;;;;;6.90;57.79;100167.94;5052991;28;45492;-82
2022/12/09 13:10:21;;;;;;;;;39.50;35.75;;;;;6.57;58.53;100153.31;5054672;28;45578;-82
2022/12/09 13:12:52;;;;;;;;;39.75;37.75;;;;;6.54;59.17;100169.44;5055212;28;47745;-73
2022/12/09 13:15:22;;;;;;;;;45.50;39.50;;;;;6.63;59.63;100172.59;5043905;28;46381;-75
2022/12/09 13:17:49;;;;;;;;;41.25;37.00;;;;;6.61;59.23;100160.25;5054500;28;45518;-73
2022/12/09 13:20:29;;;;;;;;;47.25;37.25;;;;;6.64;59.06;100149.47;5054335;28;45443;-76
2022/12/09 13:23:03;;;;;;;;;44.50;39.00;;;;;6.77;59.29;100172.06;5054395;28;45509;-75
2022/12/09 13:25:28;;;;;;;;;36.00;35.00;;;;;6.81;59.29;100170.97;5055208;28;45731;-74
2022/12/09 13:28:02;;;;;;;;;45.00;37.75;;;;;6.75;59.10;100157.91;5055999;28;45364;-73
2022/12/09 13:30:48;;;;;;;;;37.00;34.25;;;;;6.69;58.88;100161.69;5056423;28;45331;-75
2022/12/09 13:33:38;;;;;;;;;44.75;40.50;;;;;6.57;59.31;100170.16;5056610;28;45502;-73
2022/12/09 13:36:15;;;;;;;;;40.50;36.50;;;;;6.53;59.78;100162.34;5044469;28;46054;-72
2022/12/09 13:38:41;;;;;;;;;40.50;33.75;;;;;6.57;59.69;100162.16;5057651;28;45367;-73
2022/12/09 13:41:29;;;;;;;;;36.50;33.00;;;;;6.69;59.13;100167.03;5055300;28;45323;-73
2022/12/09 13:44:03;;;;;;;;;40.50;38.00;;;;;6.66;58.93;100163.59;5053470;28;45485;-75
2022/12/09 13:46:29;;;;;;;;;46.00;37.50;;;;;6.59;58.77;100155.00;5053951;28;48002;-73
2022/12/09 13:48:54;;;;;;;;;24.00;23.50;;;;;6.49;59.10;100142.94;5036590;28;45432;-74
2022/12/09 13:51:22;;;;;;;;;34.50;32.75;;;;;6.50;59.11;100159.81;5054815;28;45625;-76
2022/12/09 13:54:03;;;;;;;;;38.00;29.50;;;;;6.39;59.17;100161.06;5054630;28;45328;-75
2022/12/09 13:56:32;;;;;;;;;42.25;38.00;;;;;6.23;59.81;100159.03;5053791;28;45370;-74
2022/12/09 13:59:25;;;;;;;;;36.25;32.25;;;;;6.13;60.36;100152.31;5051368;28;45540;-73
2022/12/09 14:02:00;;;;;;;;;35.00;32.50;;;;;6.06;60.83;100152.56;5041334;28;45344;-71
2022/12/09 14:04:28;;;;;;;;;39.00;30.75;;;;;6.05;60.84;100152.63;5053595;28;45372;-72
2022/12/09 14:07:08;;;;;;;;;39.50;32.75;;;;;5.99;60.33;100139.53;5049618;28;45874;-72
2022/12/09 14:09:48;;;;;;;;;32.50;26.50;;;;;5.94;60.78;100134.41;5051092;28;45391;-72
2022/12/09 14:12:25;;;;;;;;;25.25;23.25;;;;;6.27;60.14;100147.38;5053580;28;45296;-73
2022/12/09 14:14:56;;;;;;;;;31.75;27.50;;;;;6.40;59.65;100143.31;5043578;28;45487;-72
2022/12/09 14:17:25;;;;;;;;;34.50;30.00;;;;;6.72;58.70;100148.25;5049809;28;46118;-74
2022/12/09 14:20:02;;;;;;;;;23.75;22.50;;;;;7.14;57.78;100143.00;5054390;28;45480;-73
2022/12/09 14:22:32;;;;;;;;;31.00;29.25;;;;;7.56;56.71;100140.31;5053856;28;45418;-72
2022/12/09 14:25:18;;;;;;;;;25.00;25.00;;;;;7.86;55.50;100135.41;5029982;28;47506;-72
2022/12/09 14:28:08;;;;;;;;;32.50;29.00;;;;;8.10;54.53;100136.13;5049981;28;45293;-71
2022/12/09 14:30:36;;;;;;;;;32.00;25.75;;;;;8.44;54.27;100147.94;5043394;28;45517;-72
2022/12/09 14:33:02;;;;;;;;;31.75;25.00;;;;;8.79;53.63;100141.81;5053876;28;45276;-71
2022/12/09 14:35:49;;;;;;;;;36.00;30.00;;;;;9.10;52.20;100144.69;5055831;28;46082;-72
2022/12/09 14:38:27;;;;;;;;;26.50;21.50;;;;;9.35;51.46;100147.06;5053755;28;45351;-71
2022/12/09 14:41:04;;;;;;;;;25.00;22.50;;;;;9.41;51.08;100149.41;5053753;28;45434;-72
2022/12/09 14:43:51;;;;;;;;;28.75;26.00;;;;;9.18;51.66;100146.16;5053118;28;45337;-71
2022/12/09 14:46:32;;;;;;;;;24.25;21.00;;;;;8.96;51.99;100125.81;5035199;28;45358;-74
2022/12/09 14:49:21;;;;;;;;;30.00;26.50;;;;;8.92;51.80;100148.31;5041063;28;46582;-70
2022/12/09 14:51:54;;;;;;;;;28.75;25.50;;;;;8.65;52.51;100152.28;5052063;28;45489;-71
2022/12/09 14:54:33;;;;;;;;;22.50;22.50;;;;;8.49;53.17;100159.31;5053800;28;45427;-71
2022/12/09 14:57:06;;;;;;;;;28.75;25.75;;;;;8.28;53.64;100155.78;5053437;28;45604;-71
2022/12/09 14:59:32;;;;;;;;;28.25;22.00;;;;;8.12;53.55;100165.41;5034814;28;47387;-70
2022/12/09 15:01:58;;;;;;;;;24.50;24.50;;;;;7.94;54.60;100165.31;5053743;28;45493;-71
2022/12/09 15:04:30;;;;;;;;;28.50;28.25;;;;;7.80;54.81;100164.19;5053654;28;45343;-70
2022/12/09 15:07:26;;;;;;;;;33.75;26.25;;;;;7.67;55.18;100169.16;5053638;28;45363;-70
2022/12/09 15:09:54;;;;;;;;;30.50;28.75;;;;;7.52;55.49;100172.50;5036610;28;46047;-72
2022/12/09 15:12:37;;;;;;;;;23.25;20.25;;;;;7.33;55.90;100164.41;5053467;28;45409;-72
2022/12/09 15:15:02;;;;;;;;;24.00;20.50;;;;;7.30;56.17;100169.88;5044512;28;45461;-71
2022/12/09 15:17:36;;;;;;;;;24.00;24.00;;;;;7.18;56.66;100181.03;5052646;28;45195;-71
2022/12/09 15:20:04;;;;;;;;;30.25;24.25;;;;;7.10;56.59;100175.16;5035240;28;47225;-69
2022/12/09 15:22:31;;;;;;;;;25.25;24.00;;;;;6.94;56.42;100166.91;5035069;28;45638;-69
2022/12/09 15:24:57;;;;;;;;;24.25;22.00;;;;;6.84;57.47;100170.88;5053613;28;45409;-69
2022/12/09 15:27:24;;;;;;;;;28.25;25.50;;;;;6.78;57.42;100180.00;5053928;28;45504;-70
2022/12/09 15:29:49;;;;;;;;;28.50;26.75;;;;;6.72;57.32;100174.88;5056849;28;45742;-71
2022/12/09 15:32:27;;;;;;;;;28.75;24.75;;;;;6.54;57.56;100158.78;5055871;28;45354;-74
2022/12/09 15:34:53;;;;;;;;;27.00;23.00;;;;;6.51;58.07;100170.41;5058426;28;45552;-73
2022/12/09 15:37:25;;;;;;;;;31.50;27.75;;;;;6.49;58.79;100190.00;5063624;28;45442;-72
2022/12/09 15:39:59;;;;;;;;;25.00;21.25;;;;;6.42;58.84;100178.72;5047804;28;48265;-73
2022/12/09 15:42:28;;;;;;;;;27.00;23.00;;;;;6.44;58.77;100183.09;5058340;28;45225;-72
2022/12/09 15:45:16;;;;;;;;;30.50;26.25;;;;;6.23;59.20;100189.19;5057913;28;45366;-74
2022/12/09 15:47:51;;;;;;;;;22.25;22.25;;;;;6.20;59.40;100189.34;5058126;28;45327;-74
2022/12/09 15:50:28;;;;;;;;;30.00;25.25;;;;;6.16;59.55;100179.72;5057478;28;45386;-72
2022/12/09 15:52:57;;;;;;;;;21.75;21.75;;;;;6.12;60.21;100194.06;5056917;28;45510;-71
2022/12/09 15:55:35;;;;;;;;;26.50;22.25;;;;;6.08;60.60;100197.75;5056847;28;45409;-71
2022/12/09 15:58:05;;;;;;;;;27.00;22.75;;;;;6.06;60.45;100196.94;5056741;28;45458;-71
2022/12/09 16:00:31;;;;;;;;;28.75;24.75;;;;;6.03;60.77;100192.59;5056268;28;45533;-71
2022/12/09 16:02:56;;;;;;;;;29.25;24.25;;;;;6.07;60.77;100201.34;5055914;28;45182;-72
2022/12/09 16:05:24;;;;;;;;;26.75;22.50;;;;;6.05;60.17;100201.38;5056464;28;45478;-71
2022/12/09 16:07:53;;;;;;;;;30.00;24.50;;;;;5.93;60.31;100206.28;5053522;28;45564;-73
2022/12/09 16:10:25;;;;;;;;;29.25;25.50;;;;;5.82;60.92;100189.78;5056376;28;45494;-74
2022/12/09 16:13:12;;;;;;;;;27.50;23.75;;;;;5.81;61.19;100206.66;5023503;28;45331;-73
2022/12/09 16:15:54;;;;;;;;;26.50;23.00;;;;;5.72;60.90;100199.88;5056613;28;45475;-74
2022/12/09 16:18:23;;;;;;;;;35.00;25.75;;;;;5.55;61.51;100187.16;5055046;28;45473;-75
2022/12/09 16:20:59;;;;;;;;;30.25;24.00;;;;;5.57;61.49;100198.63;5056092;28;45514;-75
2022/12/09 16:23:25;;;;;;;;;32.75;27.00;;;;;5.58;61.62;100207.47;5055417;28;45367;-71
2022/12/09 16:25:58;;;;;;;;;31.75;25.75;;;;;5.45;62.01;100195.50;5056228;28;45283;-75
2022/12/09 16:28:28;;;;;;;;;27.25;27.25;;;;;5.47;62.76;100196.31;5059153;28;45415;-73
2022/12/09 16:31:03;;;;;;;;;31.25;27.50;;;;;5.43;62.56;100194.72;5056455;28;46197;-71
2022/12/09 16:33:36;;;;;;;;;43.50;38.00;;;;;5.44;62.47;100193.78;5059231;28;45509;-72
2022/12/09 16:36:04;;;;;;;;;37.25;35.25;;;;;5.44;62.97;100199.09;5044013;28;45359;-71
2022/12/09 16:38:33;;;;;;;;;38.00;31.75;;;;;5.36;63.37;100196.69;5055333;28;45407;-77
2022/12/09 16:41:02;;;;;;;;;34.50;30.50;;;;;5.34;63.45;100190.56;5054997;28;46662;-70
2022/12/09 16:43:29;;;;;;;;;32.25;28.50;;;;;5.24;64.21;100199.75;5055317;28;45411;-71
2022/12/09 16:46:14;;;;;;;;;30.75;28.25;;;;;5.16;64.14;100185.84;5055136;28;45515;-70
2022/12/09 16:48:41;;;;;;;;;31.25;26.00;;;;;5.29;64.55;100206.66;5055907;28;45411;-70
2022/12/09 16:51:16;;;;;;;;;34.25;29.25;;;;;5.35;64.07;100212.69;5037847;28;47090;-77
2022/12/09 16:53:48;;;;;;;;;32.00;27.50;;;;;5.27;64.66;100195.19;5055790;28;45421;-74
2022/12/09 16:56:24;;;;;;;;;34.50;30.75;;;;;5.28;64.30;100188.97;5038003;28;45371;-75
2022/12/09 16:58:51;;;;;;;;;34.75;27.75;;;;;5.37;64.02;100213.50;5055340;28;45435;-75
2022/12/09 17:01:18;;;;;;;;;39.00;31.50;;;;;5.32;64.34;100209.22;5055097;28;45496;-71
2022/12/09 17:03:56;;;;;;;;;35.25;30.50;;;;;5.29;64.53;100214.63;5054379;28;45552;-72
2022/12/09 17:06:22;;;;;;;;;36.75;29.50;;;;;5.29;64.27;100211.09;5050202;28;45506;-72
2022/12/09 17:08:48;;;;;;;;;33.75;29.00;;;;;5.28;64.50;100217.31;5055655;28;45336;-74
2022/12/09 17:11:15;;;;;;;;;33.00;29.50;;;;;5.20;64.63;100227.34;5055595;28;46549;-70
2022/12/09 17:13:41;;;;;;;;;27.00;20.75;;;;;5.15;64.71;100231.94;5049070;28;45435;-69
2022/12/09 17:16:07;;;;;;;;;33.50;30.75;;;;;5.09;64.67;100225.03;5052049;28;45320;-71
2022/12/09 17:18:33;;;;;;;;;33.50;30.75;;;;;5.02;64.83;100212.00;5055695;28;45529;-71